< Typhoon 202018 2020 Season Typhoon 202020 >
Typhoon 202019 (GONI)
General InformationDetailed Track InformationTrack Information on Google MapsForecast History on Google MapsAccess Analytics MapList of All Images || NewsDisaster Info.WeblogTrackbackTyphoon FrontTwiphoonTyphoon Now!Typhoon ImaginationJMA Disaster Info. XMLResourceGoogle EarthGE AnimationAtom FeedGeoJSON
Detalied Best Track Wind (Time Zone = UTC)
Year Month Day Hour Lat. Long. Wind (kt) Gust (kt) Direc. of Major Storm Axis Radius of Major Storm Axis (nm) Radius of Minor Storm Axis (nm) Direc. of Major Gale Axis Radius of Major Gale Axis (nm) Radius of Minor Gale Axis (nm) Image
2020 10 27 12 16.1 141.2 30 45 - - - - - - Image
2020 10 27 15 16.2 141.1 30 45 - - - - - - Image
2020 10 27 18 16.2 140.7 30 45 - - - - - - Image
2020 10 27 21 16.2 140.5 30 45 - - - - - - Image
2020 10 28 00 16.4 140.0 30 45 - - - - - - Image
2020 10 28 03 16.4 139.5 30 45 - - - - - - Image
2020 10 28 06 16.4 139.0 30 45 - - - - - - Image
2020 10 28 09 16.5 138.7 30 45 - - - - - - Image
2020 10 28 12 16.6 138.5 30 45 - - - - - - Image
2020 10 28 15 16.5 138.3 30 45 - - - - - - Image
2020 10 28 18 16.7 138.1 35 50 - - - symmetric 60 60 Image
2020 10 28 21 16.6 137.0 35 50 - - - symmetric 60 60 Image
2020 10 29 00 16.6 136.9 35 50 - - - symmetric 60 60 Image
2020 10 29 03 16.6 136.4 40 60 - - - symmetric 120 120 Image
2020 10 29 06 16.8 136.1 40 60 - - - symmetric 120 120 Image
2020 10 29 09 16.8 135.3 45 65 - - - symmetric 120 120 Image
2020 10 29 12 16.7 134.6 60 85 symmetric 40 40 symmetric 120 120 Image
2020 10 29 15 16.5 134.0 65 95 symmetric 40 40 symmetric 120 120 Image
2020 10 29 18 16.4 133.4 70 100 symmetric 40 40 symmetric 120 120 Image
2020 10 29 21 16.3 133.0 75 105 symmetric 40 40 symmetric 120 120 Image
2020 10 30 00 16.3 132.7 85 120 symmetric 40 40 symmetric 120 120 Image
2020 10 30 03 16.4 132.2 90 130 symmetric 40 40 symmetric 120 120 Image
2020 10 30 06 16.4 131.6 100 140 symmetric 40 40 symmetric 120 120 Image
2020 10 30 09 16.2 131.2 105 150 symmetric 50 50 symmetric 120 120 Image
2020 10 30 12 16.1 130.9 115 165 symmetric 50 50 symmetric 150 150 Image
2020 10 30 18 15.9 129.9 115 165 symmetric 50 50 N 180 120 Image
2020 10 30 21 15.6 129.3 115 165 symmetric 50 50 N 180 120 Image
2020 10 31 00 15.3 128.8 115 165 symmetric 50 50 N 180 120 Image
2020 10 31 03 15.1 128.3 115 165 symmetric 50 50 N 220 120 Image
2020 10 31 06 14.7 127.7 115 165 symmetric 50 50 N 220 120 Image
2020 10 31 09 14.4 127.1 115 165 symmetric 50 50 N 220 120 Image
2020 10 31 12 14.2 126.5 115 165 symmetric 50 50 N 220 120 Image
2020 10 31 15 13.9 125.7 115 165 symmetric 50 50 NW 260 120 Image
2020 10 31 18 13.7 125.0 120 170 symmetric 50 50 NW 260 120 Image
2020 10 31 21 13.6 124.3 120 170 symmetric 50 50 NW 260 120 Image
2020 11 1 00 13.5 123.6 90 130 symmetric 40 40 NW 260 120 Image
2020 11 1 03 13.5 122.7 85 120 symmetric 35 35 N 210 120 Image
2020 11 1 06 13.6 122.0 80 115 symmetric 35 35 N 210 120 Image
2020 11 1 09 14.1 121.6 65 95 symmetric 20 20 N 210 120 Image
2020 11 1 12 14.3 121.1 50 70 - - - N 210 120 Image
2020 11 1 15 14.4 120.7 40 60 - - - N 210 120 Image
2020 11 1 18 14.5 120.5 35 50 - - - N 210 120 Image
2020 11 1 21 14.5 119.5 35 50 - - - N 210 120 Image
2020 11 2 00 14.5 118.6 35 50 - - - N 210 120 Image
2020 11 2 03 15.0 118.6 35 50 - - - N 210 120 Image
2020 11 2 06 15.2 118.1 35 50 - - - N 180 90 Image
2020 11 2 09 15.2 117.3 35 50 - - - NW 180 90 Image
2020 11 2 12 15.2 116.8 35 50 - - - NW 180 90 Image
2020 11 2 15 15.1 116.4 35 50 - - - NW 180 90 Image
2020 11 2 18 15.0 116.0 35 50 - - - NW 180 90 Image
2020 11 2 21 15.0 115.5 35 50 - - - NW 180 90 Image
2020 11 3 00 14.9 115.3 35 50 - - - NW 180 90 Image
2020 11 3 03 14.8 115.2 35 50 - - - NW 180 90 Image
2020 11 3 06 14.8 115.1 35 50 - - - NW 180 90 Image
2020 11 3 09 14.8 115.2 35 50 - - - NW 180 90 Image
2020 11 3 12 14.8 114.7 35 50 - - - NW 180 90 Image
2020 11 3 15 14.8 114.4 35 50 - - - NW 180 90 Image
2020 11 3 18 14.7 114.0 35 50 - - - NW 180 90 Image
2020 11 3 21 14.7 113.7 35 50 - - - NW 180 90 Image
2020 11 4 00 14.6 113.4 35 50 - - - NW 180 90 Image
2020 11 4 03 14.5 113.1 40 60 - - - NW 180 90 Image
2020 11 4 06 14.4 113.1 40 60 - - - NW 180 90 Image
2020 11 4 09 14.3 112.9 40 60 - - - NW 180 90 Image
2020 11 4 12 14.5 112.7 40 60 - - - NW 180 90 Image
2020 11 4 15 14.4 112.5 40 60 - - - NW 180 90 Image
2020 11 4 18 14.3 112.3 40 60 - - - NW 180 90 Image
2020 11 4 21 14.5 112.3 40 60 - - - NW 210 60 Image
2020 11 5 00 14.5 111.7 40 60 - - - NW 210 120 Image
2020 11 5 03 14.3 111.0 40 60 - - - NW 180 120 Image
2020 11 5 06 14.3 111.0 35 50 - - - NW 180 120 Image
2020 11 5 09 13.9 111.5 35 50 - - - NW 180 120 Image
2020 11 5 12 14.0 111.2 35 50 - - - NW 180 120 Image
2020 11 5 15 14.2 110.5 35 50 - - - NW 180 120 Image
2020 11 5 18 14.0 111.0 0 0 - - - - - - Image
Japan Meteorological Agency Best Track Data | Correction Date : 2020-11-05
< Typhoon 202018 2020 Season Typhoon 202020 >

Help